createdAt,value
2018-06-14T00:01:17.952Z,7.68
2018-06-14T00:03:46.667Z,7.70
2018-06-14T00:06:15.431Z,7.69
2018-06-14T00:08:44.012Z,7.72
2018-06-14T00:11:12.980Z,7.74
2018-06-14T00:13:41.955Z,7.77
2018-06-14T00:16:10.666Z,7.57
2018-06-14T00:18:39.403Z,7.85
2018-06-14T00:21:08.114Z,7.89
2018-06-14T00:23:36.747Z,7.89
2018-06-14T00:26:05.478Z,7.89
2018-06-14T00:28:34.132Z,7.83
2018-06-14T00:31:03.114Z,7.85
2018-06-14T00:33:31.843Z,7.86
2018-06-14T00:36:00.628Z,7.90
2018-06-14T00:38:29.364Z,7.88
2018-06-14T00:40:58.145Z,7.86
2018-06-14T00:43:26.940Z,7.87
2018-06-14T00:45:55.677Z,7.91
2018-06-14T00:48:24.483Z,7.95
2018-06-14T00:50:54.012Z,7.94
2018-06-14T00:53:23.920Z,7.97
2018-06-14T00:55:52.642Z,7.99
2018-06-14T00:58:21.459Z,7.99
2018-06-14T01:00:50.231Z,7.99
2018-06-14T01:03:19.045Z,7.95
2018-06-14T01:05:47.671Z,7.94
2018-06-14T01:08:16.422Z,7.96
2018-06-14T01:10:45.133Z,7.97
2018-06-14T01:13:14.137Z,7.97
2018-06-14T01:15:43.336Z,7.96
2018-06-14T01:18:12.406Z,7.96
2018-06-14T01:20:41.427Z,7.93
2018-06-14T01:23:10.291Z,7.94
2018-06-14T01:25:39.105Z,7.94
2018-06-14T01:28:07.902Z,7.97
2018-06-14T01:30:36.751Z,7.93
2018-06-14T01:33:05.519Z,7.93
2018-06-14T01:35:34.181Z,7.92
2018-06-14T01:38:14.096Z,7.93
2018-06-14T01:40:42.992Z,7.96
2018-06-14T01:43:11.828Z,7.99
2018-06-14T01:45:40.933Z,7.98
2018-06-14T01:48:09.622Z,8.00
2018-06-14T01:50:38.448Z,8.04
2018-06-14T01:53:07.107Z,8.04
2018-06-14T01:55:36.133Z,8.04
2018-06-14T01:58:05.127Z,8.04
2018-06-14T02:00:33.938Z,7.98
2018-06-14T02:03:02.686Z,7.96
2018-06-14T02:05:31.624Z,7.96
2018-06-14T02:08:00.268Z,7.96
2018-06-14T02:10:29.053Z,7.96
2018-06-14T02:12:57.890Z,7.97
2018-06-14T02:15:28.243Z,8.03
2018-06-14T02:17:57.335Z,8.04
2018-06-14T02:20:25.953Z,8.04
2018-06-14T02:22:54.813Z,8.05
2018-06-14T02:25:24.007Z,8.02
2018-06-14T02:27:52.884Z,8.01
2018-06-14T02:30:21.550Z,7.99
2018-06-14T02:32:50.481Z,7.98
2018-06-14T02:35:19.381Z,8.03
2018-06-14T02:37:53.108Z,8.10
2018-06-14T02:40:30.271Z,8.11
2018-06-14T02:43:06.738Z,8.14
2018-06-14T02:45:35.903Z,8.17
2018-06-14T02:48:04.712Z,8.18
2018-06-14T02:50:33.969Z,8.26
2018-06-14T02:53:02.938Z,8.32
2018-06-14T02:55:31.681Z,8.34
2018-06-14T02:58:00.608Z,8.41
2018-06-14T03:00:29.290Z,8.43
2018-06-14T03:02:57.970Z,8.49
2018-06-14T03:05:35.503Z,8.56
2018-06-14T03:08:04.422Z,8.56
2018-06-14T03:10:33.399Z,8.67
2018-06-14T03:13:02.881Z,8.72
2018-06-14T03:15:32.667Z,8.74
2018-06-14T03:18:01.546Z,8.77
2018-06-14T03:20:33.289Z,8.78
2018-06-14T03:23:02.086Z,8.82
2018-06-14T03:25:36.528Z,8.88
2018-06-14T03:28:13.516Z,8.88
2018-06-14T03:30:42.442Z,8.95
2018-06-14T03:33:23.560Z,8.95
2018-06-14T03:35:53.925Z,9.01
2018-06-14T03:38:22.735Z,9.11
2018-06-14T03:40:57.404Z,9.11
2018-06-14T03:43:26.172Z,9.14
2018-06-14T03:45:56.306Z,9.24
2018-06-14T03:48:28.415Z,9.21
2018-06-14T03:51:01.829Z,9.29
2018-06-14T03:53:30.869Z,9.34
2018-06-14T03:56:08.231Z,9.43
2018-06-14T03:58:38.590Z,9.48
2018-06-14T04:01:17.839Z,9.56
2018-06-14T04:03:52.127Z,9.61
2018-06-14T04:06:21.477Z,9.67
2018-06-14T04:08:50.162Z,9.67
2018-06-14T04:11:18.791Z,9.73
2018-06-14T04:13:47.535Z,9.81
2018-06-14T04:16:16.273Z,9.88
2018-06-14T04:18:45.338Z,9.92
2018-06-14T04:21:14.620Z,10.00
2018-06-14T04:23:44.334Z,10.07
2018-06-14T04:26:13.911Z,10.06
2018-06-14T04:28:43.669Z,10.20
2018-06-14T04:31:12.437Z,10.21
2018-06-14T04:33:41.182Z,10.33
2018-06-14T04:36:09.763Z,10.37
2018-06-14T04:38:38.525Z,10.50
2018-06-14T04:41:07.526Z,10.63
2018-06-14T04:43:36.371Z,10.73
2018-06-14T04:46:05.637Z,10.83
2018-06-14T04:48:34.867Z,10.99
2018-06-14T04:51:03.667Z,11.09
2018-06-14T04:53:32.710Z,11.23
2018-06-14T04:56:02.140Z,11.40
2018-06-14T04:58:31.275Z,11.54
2018-06-14T05:01:00.113Z,11.71
2018-06-14T05:03:30.516Z,11.91
2018-06-14T05:05:59.801Z,12.10
2018-06-14T05:08:28.804Z,12.19
2018-06-14T05:10:57.600Z,12.32
2018-06-14T05:13:26.709Z,12.50
2018-06-14T05:15:56.183Z,12.66
2018-06-14T05:18:25.281Z,12.85
2018-06-14T05:20:54.521Z,12.99
2018-06-14T05:23:23.229Z,13.06
2018-06-14T05:25:51.929Z,13.17
2018-06-14T05:28:20.578Z,13.33
2018-06-14T05:30:49.336Z,13.45
2018-06-14T05:33:17.980Z,13.56
2018-06-14T05:35:46.650Z,13.56
2018-06-14T05:38:15.759Z,13.50
2018-06-14T05:40:49.068Z,13.59
2018-06-14T05:43:19.860Z,13.80
2018-06-14T05:46:12.878Z,13.66
2018-06-14T05:48:45.120Z,13.58
2018-06-14T05:51:13.850Z,13.81
2018-06-14T05:53:42.674Z,11.79
2018-06-14T05:56:12.084Z,14.12
2018-06-14T05:58:40.915Z,14.13
2018-06-14T06:01:09.695Z,14.23
2018-06-14T06:03:39.442Z,14.27
2018-06-14T06:06:15.035Z,14.34
2018-06-14T06:08:44.822Z,14.38
2018-06-14T06:11:26.078Z,14.34
2018-06-14T06:13:55.016Z,14.56
2018-06-14T06:16:23.886Z,14.59
2018-06-14T06:18:53.400Z,14.64
2018-06-14T06:21:22.106Z,14.54
2018-06-14T06:23:50.983Z,14.66
2018-06-14T06:26:20.105Z,14.67
2018-06-14T06:28:48.746Z,14.71
2018-06-14T06:31:17.719Z,14.82
2018-06-14T06:33:46.371Z,14.95
2018-06-14T06:36:15.290Z,15.05
2018-06-14T06:38:44.054Z,15.17
2018-06-14T06:41:12.946Z,15.25
2018-06-14T06:43:41.799Z,15.34
2018-06-14T06:46:10.546Z,15.51
2018-06-14T06:48:39.159Z,15.60
2018-06-14T06:51:08.099Z,15.58
2018-06-14T06:53:36.729Z,15.74
2018-06-14T06:56:06.298Z,15.76
2018-06-14T06:58:36.172Z,15.83
2018-06-14T07:01:05.214Z,15.79
2018-06-14T07:03:33.944Z,15.93
2018-06-14T07:06:02.961Z,15.97
2018-06-14T07:08:31.839Z,16.01
2018-06-14T07:11:00.795Z,15.86
2018-06-14T07:13:29.935Z,15.88
2018-06-14T07:15:58.634Z,15.95
2018-06-14T07:18:27.823Z,16.19
2018-06-14T07:20:56.419Z,16.10
2018-06-14T07:23:25.419Z,15.88
2018-06-14T07:25:54.731Z,15.61
2018-06-14T07:28:23.456Z,15.45
2018-06-14T07:30:52.570Z,15.71
2018-06-14T07:33:21.272Z,16.11
2018-06-14T07:35:51.805Z,16.19
2018-06-14T07:38:20.842Z,16.49
2018-06-14T07:40:49.730Z,16.76
2018-06-14T07:43:18.508Z,16.65
2018-06-14T07:45:47.501Z,16.41
2018-06-14T07:48:16.253Z,16.59
2018-06-14T07:50:45.347Z,16.69
2018-06-14T07:53:14.089Z,16.96
2018-06-14T07:55:43.053Z,16.89
2018-06-14T07:58:11.965Z,16.94
2018-06-14T08:00:40.896Z,17.25
2018-06-14T08:03:09.946Z,17.50
2018-06-14T08:05:38.986Z,17.51
2018-06-14T08:08:07.959Z,17.40
2018-06-14T08:10:36.872Z,17.43
2018-06-14T08:13:05.880Z,17.64
2018-06-14T08:15:34.881Z,17.78
2018-06-14T08:18:03.917Z,18.02
2018-06-14T08:20:33.143Z,18.16
2018-06-14T08:23:01.992Z,17.76
2018-06-14T08:25:30.685Z,17.79
2018-06-14T08:27:59.651Z,18.11
2018-06-14T08:30:28.494Z,18.48
2018-06-14T08:32:57.073Z,18.42
2018-06-14T08:35:25.812Z,18.43
2018-06-14T08:37:54.787Z,18.64
2018-06-14T08:40:23.851Z,18.33
2018-06-14T08:42:52.724Z,18.29
2018-06-14T09:05:31.776Z,18.53
2018-06-14T09:08:00.590Z,17.76
2018-06-14T09:10:29.349Z,18.19
2018-06-14T09:12:58.371Z,18.35
2018-06-14T09:15:27.150Z,18.15
2018-06-14T09:17:56.255Z,18.16
2018-06-14T09:20:25.111Z,18.34
2018-06-14T09:22:53.936Z,18.44
2018-06-14T09:25:22.765Z,18.55
2018-06-14T09:27:51.703Z,18.63
2018-06-14T09:30:20.932Z,18.18
2018-06-14T09:32:50.127Z,17.72
2018-06-14T09:35:18.781Z,17.37
2018-06-14T09:37:47.790Z,17.71
2018-06-14T09:40:16.884Z,17.78
2018-06-14T09:42:45.541Z,17.70
2018-06-14T09:45:14.458Z,17.97
2018-06-14T09:47:43.373Z,17.70
2018-06-14T09:50:12.262Z,17.42
2018-06-14T09:52:41.000Z,17.50
2018-06-14T09:55:09.743Z,17.22
2018-06-14T09:57:38.397Z,17.20
2018-06-14T10:00:07.020Z,17.46
2018-06-14T10:02:35.968Z,17.15
2018-06-14T10:05:04.911Z,17.22
2018-06-14T10:07:33.794Z,17.38
2018-06-14T10:10:02.681Z,17.30
2018-06-14T10:12:34.454Z,17.26
2018-06-14T10:15:04.152Z,17.56
2018-06-14T10:17:33.017Z,17.85
2018-06-14T10:20:02.019Z,18.14
2018-06-14T10:22:31.139Z,18.15
2018-06-14T10:25:00.088Z,17.88
2018-06-14T10:27:28.869Z,18.15
2018-06-14T10:29:57.830Z,17.94
2018-06-14T10:32:26.633Z,17.94
2018-06-14T10:52:34.084Z,18.70
2018-06-14T10:55:03.388Z,19.02
2018-06-14T10:59:08.679Z,18.79
2018-06-14T11:01:37.581Z,18.87
2018-06-14T11:04:06.536Z,18.83
2018-06-14T11:06:35.272Z,18.56
2018-06-14T11:09:04.911Z,18.70
2018-06-14T11:11:33.577Z,19.04
2018-06-14T11:14:02.737Z,18.96
2018-06-14T11:16:31.410Z,18.96
2018-06-14T11:19:00.364Z,19.22
2018-06-14T11:21:29.216Z,19.34
2018-06-14T11:23:58.194Z,19.37
2018-06-14T11:26:27.410Z,18.95
2018-06-14T11:28:56.335Z,18.92
2018-06-14T11:31:25.647Z,18.28
2018-06-14T11:33:54.786Z,18.68
2018-06-14T11:36:23.622Z,18.88
2018-06-14T11:38:52.503Z,18.95
2018-06-14T11:41:21.284Z,19.16
2018-06-14T11:43:50.231Z,18.92
2018-06-14T11:46:18.962Z,18.75
2018-06-14T11:48:47.651Z,18.65
2018-06-14T11:51:16.474Z,18.69
2018-06-14T11:53:45.553Z,18.91
2018-06-14T11:56:14.356Z,18.82
2018-06-14T11:58:43.127Z,19.12
2018-06-14T12:01:11.777Z,19.33
2018-06-14T12:03:40.850Z,18.95
2018-06-14T12:06:09.480Z,19.29
2018-06-14T12:08:38.633Z,19.39
2018-06-14T12:11:07.839Z,19.61
2018-06-14T12:13:36.726Z,19.40
2018-06-14T12:16:05.496Z,19.24
2018-06-14T12:18:34.466Z,18.88
2018-06-14T12:21:03.416Z,18.84
2018-06-14T12:23:32.040Z,18.39
2018-06-14T12:26:00.689Z,18.02
2018-06-14T12:28:29.432Z,18.24
2018-06-14T12:30:58.081Z,17.94
2018-06-14T12:33:26.824Z,18.03
2018-06-14T12:35:55.951Z,18.09
2018-06-14T12:38:24.794Z,17.93
2018-06-14T12:40:53.739Z,17.72
2018-06-14T12:43:22.997Z,17.61
2018-06-14T12:45:51.629Z,17.59
2018-06-14T12:48:20.352Z,17.45
2018-06-14T12:50:49.294Z,17.52
2018-06-14T12:53:18.036Z,17.67
2018-06-14T12:55:46.865Z,17.48
2018-06-14T12:58:15.650Z,17.02
2018-06-14T13:00:44.415Z,17.10
2018-06-14T13:03:13.360Z,16.78
2018-06-14T13:05:42.050Z,16.94
2018-06-14T13:08:10.864Z,16.81
2018-06-14T13:10:39.592Z,16.58
2018-06-14T13:13:08.362Z,16.56
2018-06-14T13:15:36.927Z,16.56
2018-06-14T13:18:05.664Z,16.63
2018-06-14T13:20:34.358Z,16.73
2018-06-14T13:23:03.048Z,16.53
2018-06-14T13:25:32.052Z,16.30
2018-06-14T13:28:00.815Z,16.34
2018-06-14T13:30:29.701Z,16.24
2018-06-14T13:32:58.618Z,16.28
2018-06-14T13:35:27.477Z,16.09
2018-06-14T13:37:56.357Z,16.14
2018-06-14T13:40:25.227Z,16.17
2018-06-14T13:42:54.177Z,16.24
2018-06-14T13:45:22.933Z,16.34
2018-06-14T13:47:51.539Z,16.32
2018-06-14T13:50:20.553Z,16.21
2018-06-14T13:52:50.390Z,16.20
2018-06-14T13:55:19.081Z,16.42
2018-06-14T13:57:48.026Z,16.57
2018-06-14T14:00:16.901Z,16.59
2018-06-14T14:02:45.660Z,16.79
2018-06-14T14:05:14.443Z,16.90
2018-06-14T14:07:43.448Z,16.72
2018-06-14T14:10:12.403Z,16.82
2018-06-14T14:12:41.168Z,16.78
2018-06-14T14:15:10.017Z,16.71
2018-06-14T14:17:38.828Z,16.88
2018-06-14T14:20:07.628Z,16.79
2018-06-14T14:22:36.804Z,16.28
2018-06-14T14:25:05.592Z,16.07
2018-06-14T14:27:34.220Z,16.10
2018-06-14T14:30:03.193Z,16.15
2018-06-14T14:32:31.901Z,16.20
2018-06-14T14:35:00.505Z,16.22
2018-06-14T14:37:29.288Z,15.96
2018-06-14T14:39:58.418Z,15.78
2018-06-14T14:42:27.071Z,15.74
2018-06-14T14:44:56.094Z,15.84
2018-06-14T14:47:24.903Z,15.90
2018-06-14T14:49:53.679Z,15.98
2018-06-14T14:52:22.542Z,16.18
2018-06-14T14:54:51.359Z,15.99
2018-06-14T14:57:20.138Z,15.90
2018-06-14T14:59:49.015Z,16.04
2018-06-14T15:02:17.839Z,16.07
2018-06-14T15:04:46.542Z,15.97
2018-06-14T15:07:15.263Z,16.06
2018-06-14T15:09:44.117Z,16.03
2018-06-14T15:12:13.219Z,16.05
2018-06-14T15:14:41.949Z,15.87
2018-06-14T15:17:10.617Z,15.77
2018-06-14T15:19:39.286Z,15.69
2018-06-14T15:22:08.017Z,15.65
2018-06-14T15:24:36.976Z,15.70
2018-06-14T15:27:05.732Z,15.76
2018-06-14T15:29:34.381Z,15.70
2018-06-14T15:32:03.058Z,15.57
2018-06-14T15:34:32.240Z,14.06
2018-06-14T15:37:00.919Z,15.70
2018-06-14T15:39:29.692Z,15.71
2018-06-14T15:41:58.506Z,15.60
2018-06-14T15:44:27.373Z,15.80
2018-06-14T15:46:56.244Z,15.69
2018-06-14T15:49:25.098Z,15.61
2018-06-14T15:51:53.870Z,15.58
2018-06-14T15:54:22.701Z,15.67
2018-06-14T15:56:51.513Z,15.84
2018-06-14T15:59:20.405Z,15.71
2018-06-14T16:01:49.105Z,15.69
2018-06-14T16:04:17.725Z,15.76
2018-06-14T16:06:46.610Z,15.70
2018-06-14T16:09:15.414Z,15.82
2018-06-14T16:11:44.248Z,15.91
2018-06-14T16:14:13.397Z,15.79
2018-06-14T16:16:48.707Z,15.73
2018-06-14T16:19:17.461Z,15.89
2018-06-14T16:21:46.399Z,15.90
2018-06-14T16:24:15.310Z,15.87
2018-06-14T16:26:44.198Z,15.79
2018-06-14T16:29:13.071Z,15.93
2018-06-14T16:31:41.879Z,15.99
2018-06-14T16:34:10.846Z,15.88
2018-06-14T16:36:39.968Z,15.88
2018-06-14T16:39:09.319Z,15.89
2018-06-14T16:41:38.024Z,15.90
2018-06-14T16:44:06.767Z,15.95
2018-06-14T16:46:35.591Z,15.97
2018-06-14T16:49:04.639Z,16.01
2018-06-14T16:51:33.410Z,16.10
2018-06-14T16:54:02.752Z,16.08
2018-06-14T16:56:32.645Z,16.02
2018-06-14T16:59:01.266Z,16.11
2018-06-14T17:01:30.465Z,15.96
2018-06-14T17:03:59.440Z,16.00
2018-06-14T17:06:28.304Z,15.99
2018-06-14T17:08:56.880Z,15.93
2018-06-14T17:11:25.601Z,15.91
2018-06-14T17:13:54.724Z,15.96
2018-06-14T17:16:23.616Z,15.95
2018-06-14T17:18:53.355Z,16.01
2018-06-14T17:21:23.061Z,15.97
2018-06-14T17:23:52.462Z,15.99
2018-06-14T17:26:21.784Z,16.04
2018-06-14T17:28:51.019Z,15.96
2018-06-14T17:31:19.950Z,15.97
2018-06-14T17:37:03.234Z,15.94
2018-06-14T17:39:40.363Z,15.92
2018-06-14T17:42:12.018Z,15.84
2018-06-14T17:44:44.091Z,15.81
2018-06-14T17:47:13.412Z,15.68
2018-06-14T17:49:42.634Z,15.62
2018-06-14T17:52:11.805Z,15.70
2018-06-14T17:54:40.992Z,15.73
2018-06-14T17:57:10.465Z,15.72
2018-06-14T17:59:39.637Z,15.70
2018-06-14T18:02:08.807Z,15.64
2018-06-14T18:04:38.913Z,15.60
2018-06-14T18:07:07.625Z,15.49
2018-06-14T18:09:36.583Z,15.43
2018-06-14T18:12:05.745Z,15.32
2018-06-14T18:14:35.039Z,15.36
2018-06-14T18:17:04.325Z,15.29
2018-06-14T18:19:33.582Z,15.26
2018-06-14T18:22:03.131Z,15.17
2018-06-14T18:24:32.055Z,15.11
2018-06-14T18:27:00.943Z,15.10
2018-06-14T18:29:29.834Z,14.94
2018-06-14T18:31:59.095Z,14.99
2018-06-14T18:34:28.379Z,14.99
2018-06-14T18:36:57.566Z,14.98
2018-06-14T18:39:26.230Z,14.93
2018-06-14T18:41:55.030Z,14.70
2018-06-14T18:44:23.773Z,14.91
2018-06-14T18:46:52.396Z,14.84
2018-06-14T18:49:21.510Z,14.90
2018-06-14T18:51:50.929Z,14.83
2018-06-14T18:54:20.577Z,14.71
2018-06-14T18:56:50.168Z,14.70
2018-06-14T18:59:20.894Z,14.70
2018-06-14T19:01:50.132Z,14.69
2018-06-14T19:04:19.064Z,14.61
2018-06-14T19:06:48.627Z,14.62
2018-06-14T19:09:17.306Z,14.60
2018-06-14T19:11:46.080Z,14.62
2018-06-14T19:14:14.835Z,14.62
2018-06-14T19:16:43.685Z,14.53
2018-06-14T19:19:12.413Z,14.47
2018-06-14T19:21:41.161Z,14.49
2018-06-14T19:24:10.006Z,14.50
2018-06-14T19:26:38.694Z,14.57
2018-06-14T19:29:07.345Z,14.60
2018-06-14T19:31:36.132Z,14.61
2018-06-14T19:34:05.326Z,14.58
2018-06-14T19:36:34.358Z,14.53
2018-06-14T19:39:03.361Z,14.55
2018-06-14T19:41:32.457Z,14.55
2018-06-14T19:44:01.197Z,14.58
2018-06-14T19:46:29.931Z,14.54
2018-06-14T19:48:58.556Z,14.58
2018-06-14T19:51:27.525Z,14.66
2018-06-14T19:53:56.431Z,14.62
2018-06-14T19:56:25.290Z,14.60
2018-06-14T19:58:56.556Z,14.64
2018-06-14T20:01:25.999Z,14.64
2018-06-14T20:03:54.672Z,14.66
2018-06-14T20:06:23.586Z,14.62
2018-06-14T20:08:53.534Z,14.53
2018-06-14T20:11:23.361Z,14.53
2018-06-14T20:13:52.358Z,14.53
2018-06-14T20:16:25.536Z,14.49
2018-06-14T20:18:54.666Z,14.51
2018-06-14T20:21:23.463Z,14.51
2018-06-14T20:24:27.192Z,14.54
2018-06-14T20:27:03.158Z,14.53
2018-06-14T20:29:35.633Z,14.54
2018-06-14T20:32:09.195Z,14.52
2018-06-14T20:34:56.967Z,14.53
2018-06-14T20:37:26.033Z,14.57
2018-06-14T20:39:55.568Z,14.60
2018-06-14T20:42:24.800Z,14.57
2018-06-14T20:44:57.055Z,14.59
2018-06-14T20:47:25.838Z,14.55
2018-06-14T20:49:55.297Z,14.62
2018-06-14T20:52:24.077Z,14.59
2018-06-14T20:54:52.794Z,14.64
2018-06-14T20:57:21.626Z,14.60
2018-06-14T20:59:50.545Z,14.62
2018-06-14T21:02:19.280Z,14.60
2018-06-14T21:04:48.309Z,14.54
2018-06-14T21:07:17.988Z,14.53
2018-06-14T21:09:47.212Z,14.50
2018-06-14T21:12:16.665Z,14.47
2018-06-14T21:14:45.481Z,14.47
2018-06-14T21:17:14.134Z,14.50
2018-06-14T21:19:43.837Z,14.45
2018-06-14T21:22:13.019Z,14.43
2018-06-14T21:24:41.633Z,14.40
2018-06-14T21:27:11.205Z,14.35
2018-06-14T21:29:40.013Z,14.31
2018-06-14T21:32:09.050Z,14.31
2018-06-14T21:34:38.090Z,14.30
2018-06-14T21:37:07.103Z,14.32
2018-06-14T21:39:35.951Z,14.25
2018-06-14T21:42:04.656Z,14.22
2018-06-14T21:44:33.652Z,14.21
2018-06-14T21:47:02.685Z,14.17
2018-06-14T21:49:32.401Z,14.21
2018-06-14T21:52:01.850Z,14.12
2018-06-14T21:54:31.725Z,14.15
2018-06-14T21:57:00.506Z,14.05
2018-06-14T21:59:29.399Z,14.01
2018-06-14T22:01:58.217Z,14.07
2018-06-14T22:04:27.207Z,13.99
2018-06-14T22:06:55.895Z,13.94
2018-06-14T22:09:24.859Z,13.90
2018-06-14T22:11:53.983Z,13.67
2018-06-14T22:14:23.621Z,13.84
2018-06-14T22:16:53.540Z,13.79
2018-06-14T22:19:23.294Z,13.73
2018-06-14T22:21:54.517Z,13.75
2018-06-14T22:24:23.840Z,13.71
2018-06-14T22:26:52.496Z,13.71
2018-06-14T22:29:21.195Z,13.69
2018-06-14T22:31:50.723Z,13.71
2018-06-14T22:34:31.389Z,13.74
2018-06-14T22:37:00.007Z,13.74
2018-06-14T22:39:29.464Z,13.64
2018-06-14T22:41:58.268Z,13.68
2018-06-14T22:44:28.432Z,13.69
2018-06-14T22:46:57.416Z,13.70
2018-06-14T22:49:26.242Z,13.66
2018-06-14T22:53:05.431Z,13.64
2018-06-14T22:55:34.336Z,13.61
2018-06-14T22:58:03.403Z,13.56
2018-06-14T23:02:03.171Z,13.51
2018-06-14T23:04:32.840Z,13.50
2018-06-14T23:07:02.126Z,13.44
2018-06-14T23:10:43.813Z,13.46
2018-06-14T23:13:13.763Z,13.42
2018-06-14T23:15:42.547Z,13.42
2018-06-14T23:18:11.299Z,13.38
2018-06-14T23:20:40.521Z,13.39
2018-06-14T23:23:09.748Z,13.46
2018-06-14T23:25:38.963Z,13.43
2018-06-14T23:28:07.773Z,13.44
2018-06-14T23:30:37.335Z,13.47
2018-06-14T23:33:06.133Z,13.39
2018-06-14T23:35:34.809Z,13.41
2018-06-14T23:38:03.711Z,13.39
2018-06-14T23:40:32.471Z,13.40
2018-06-14T23:43:02.188Z,13.35
2018-06-14T23:45:30.947Z,13.40
2018-06-14T23:48:00.300Z,13.34
2018-06-14T23:50:29.373Z,13.35
2018-06-14T23:52:58.085Z,13.25
2018-06-14T23:55:26.899Z,13.32
2018-06-14T23:57:55.576Z,13.26
